Time;durP1;ratioP1;P1;durP2;ratioP2;P2;SDS_P1;SDS_P2;PMS_P1;PMS_P2;Temp;Humidity;BMP_temperature;BMP_pressure;BME280_temperature;BME280_humidity;BME280_pressure;Samples;Min_cycle;Max_cycle;Signal;HPM_P1;HPM_P2
2023/05/26 00:00:35;;;;;;;14.50;9.52;;;10.00;86.20;;;;;;5095376;28;20073;-73
2023/05/26 00:03:04;;;;;;;16.23;9.73;;;10.00;86.00;;;;;;5093447;28;20106;-73
2023/05/26 00:05:30;;;;;;;16.42;10.10;;;10.00;85.50;;;;;;5094780;28;20443;-73
2023/05/26 00:07:56;;;;;;;18.45;10.02;;;10.00;85.70;;;;;;5091456;28;20025;-73
2023/05/26 00:10:21;;;;;;;16.65;10.13;;;10.00;85.50;;;;;;5094937;28;20037;-74
2023/05/26 00:12:47;;;;;;;17.30;10.60;;;10.00;85.30;;;;;;5072728;28;20044;-73
2023/05/26 00:15:12;;;;;;;17.75;10.30;;;10.00;84.80;;;;;;5088097;28;20102;-74
2023/05/26 00:17:38;;;;;;;17.65;10.60;;;10.10;84.40;;;;;;5096186;28;20035;-74
2023/05/26 00:20:07;;;;;;;14.50;9.85;;;10.10;84.50;;;;;;5106204;28;20039;-74
2023/05/26 00:22:33;;;;;;;14.90;8.93;;;10.30;84.40;;;;;;5098532;28;20033;-74
2023/05/26 00:24:58;;;;;;;16.65;10.05;;;10.40;85.50;;;;;;5072271;28;20032;-73
2023/05/26 00:27:24;;;;;;;16.38;9.95;;;10.40;86.50;;;;;;5098475;28;20314;-74
2023/05/26 00:29:50;;;;;;;15.63;9.90;;;10.50;87.30;;;;;;5085330;28;20071;-73
2023/05/26 00:32:16;;;;;;;12.63;8.68;;;10.50;88.20;;;;;;5091908;28;20378;-73
2023/05/26 00:34:42;;;;;;;14.20;9.23;;;10.60;88.40;;;;;;5078366;28;20067;-74
2023/05/26 00:37:10;;;;;;;17.02;9.55;;;10.60;89.40;;;;;;5098222;28;20125;-73
2023/05/26 00:39:36;;;;;;;14.75;9.45;;;10.60;89.90;;;;;;5097191;28;20032;-72
2023/05/26 00:42:02;;;;;;;15.50;9.48;;;10.60;90.10;;;;;;5098326;28;20035;-72
2023/05/26 00:44:28;;;;;;;13.00;9.02;;;10.60;90.20;;;;;;5088084;28;20364;-72
2023/05/26 00:46:53;;;;;;;22.20;9.63;;;10.70;90.50;;;;;;5089982;28;20028;-72
2023/05/26 00:49:19;;;;;;;13.65;8.88;;;10.70;90.40;;;;;;5081644;28;20025;-75
2023/05/26 00:51:45;;;;;;;17.17;9.15;;;10.70;90.40;;;;;;5085531;28;20447;-74
2023/05/26 00:54:13;;;;;;;16.55;9.23;;;10.70;90.00;;;;;;5094145;28;20055;-74
2023/05/26 00:56:38;;;;;;;17.60;9.48;;;10.70;90.10;;;;;;5098301;28;20044;-74
2023/05/26 00:59:04;;;;;;;15.48;9.07;;;10.70;90.20;;;;;;5098009;28;20459;-73
2023/05/26 01:01:31;;;;;;;15.98;9.45;;;10.70;90.60;;;;;;5097728;28;20056;-73
2023/05/26 01:03:58;;;;;;;18.75;9.23;;;10.60;90.40;;;;;;5094653;28;20027;-74
2023/05/26 01:06:24;;;;;;;15.60;9.80;;;10.60;90.10;;;;;;5098043;28;20093;-73
2023/05/26 01:08:52;;;;;;;15.68;9.48;;;10.50;89.90;;;;;;5096196;28;20098;-73
2023/05/26 01:11:18;;;;;;;15.05;9.82;;;10.50;89.80;;;;;;5097175;28;20020;-75
2023/05/26 01:13:57;;;;;;;17.58;9.68;;;10.50;89.90;;;;;;5096094;28;20051;-73
2023/05/26 01:16:28;;;;;;;13.82;9.30;;;10.50;89.80;;;;;;5094396;28;20143;-73
2023/05/26 01:19:04;;;;;;;18.90;9.95;;;10.50;89.40;;;;;;5089411;28;20108;-73
2023/05/26 01:21:34;;;;;;;25.27;10.93;;;10.50;88.60;;;;;;5090495;28;20310;-73
2023/05/26 01:24:20;;;;;;;20.35;10.40;;;10.40;88.30;;;;;;5078555;28;20033;-73
2023/05/26 01:26:58;;;;;;;16.25;10.38;;;10.50;88.90;;;;;;5076264;28;20027;-73
2023/05/26 01:29:27;;;;;;;13.68;8.93;;;10.50;89.10;;;;;;5079721;28;20031;-74
2023/05/26 01:31:53;;;;;;;17.35;9.57;;;10.50;89.20;;;;;;5095723;28;20051;-73
2023/05/26 01:34:18;;;;;;;16.02;10.05;;;10.40;89.20;;;;;;5091365;28;20052;-75
2023/05/26 01:36:44;;;;;;;17.95;9.88;;;10.40;89.20;;;;;;5080702;28;20052;-74
2023/05/26 01:39:10;;;;;;;18.80;10.65;;;10.40;88.90;;;;;;5075803;28;20095;-74
2023/05/26 01:41:44;;;;;;;18.27;10.32;;;10.40;88.30;;;;;;5091682;28;20020;-74
2023/05/26 01:44:34;;;;;;;16.00;10.73;;;10.40;88.30;;;;;;5085197;28;20099;-73
2023/05/26 01:47:01;;;;;;;16.30;10.25;;;10.40;88.40;;;;;;5096165;28;20012;-74
2023/05/26 01:49:32;;;;;;;18.80;10.80;;;10.40;88.90;;;;;;5094948;28;20012;-73
2023/05/26 01:52:04;;;;;;;15.85;9.98;;;10.40;89.00;;;;;;5082210;28;20047;-74
2023/05/26 01:54:35;;;;;;;18.30;10.38;;;10.40;89.70;;;;;;5089165;28;20021;-74
2023/05/26 01:57:02;;;;;;;18.35;10.27;;;10.30;89.60;;;;;;5093471;28;20013;-73
2023/05/26 01:59:29;;;;;;;18.60;10.50;;;10.30;89.90;;;;;;5096520;28;20762;-73
2023/05/26 02:01:56;;;;;;;15.93;10.05;;;10.20;89.30;;;;;;5096782;28;20028;-73
2023/05/26 02:04:21;;;;;;;18.33;9.80;;;10.10;89.20;;;;;;5095895;28;20035;-74
2023/05/26 02:06:47;;;;;;;17.63;10.18;;;10.00;89.00;;;;;;5096759;28;20020;-73
2023/05/26 02:09:12;;;;;;;18.80;10.38;;;9.80;88.60;;;;;;5073775;28;20044;-73
2023/05/26 02:11:41;;;;;;;20.83;10.98;;;9.70;87.70;;;;;;5077364;28;20164;-73
2023/05/26 02:14:06;;;;;;;16.85;10.55;;;9.70;85.80;;;;;;5089687;28;20059;-74
2023/05/26 02:16:32;;;;;;;19.27;11.82;;;9.70;85.30;;;;;;5094609;28;20435;-73
2023/05/26 02:18:58;;;;;;;18.17;10.95;;;9.70;85.60;;;;;;5092405;28;20429;-73
2023/05/26 02:21:24;;;;;;;19.38;11.85;;;9.60;85.50;;;;;;5078594;28;20117;-73
2023/05/26 02:23:49;;;;;;;19.67;11.82;;;9.60;85.80;;;;;;5090150;28;20028;-75
2023/05/26 02:26:15;;;;;;;19.35;11.68;;;9.50;85.80;;;;;;5093679;28;20023;-73
2023/05/26 02:28:41;;;;;;;19.60;11.05;;;9.40;85.60;;;;;;5089576;28;20034;-73
2023/05/26 02:31:06;;;;;;;19.17;11.55;;;9.40;85.20;;;;;;5083731;28;20032;-73
2023/05/26 02:33:32;;;;;;;17.27;11.45;;;9.30;84.80;;;;;;5093980;28;20340;-75
2023/05/26 02:35:58;;;;;;;19.35;11.95;;;9.30;84.50;;;;;;5090327;28;20056;-73
2023/05/26 02:38:23;;;;;;;18.98;12.15;;;9.20;84.60;;;;;;5092920;28;20333;-73
2023/05/26 02:40:49;;;;;;;18.10;11.90;;;9.10;84.20;;;;;;5071435;28;20164;-73
2023/05/26 02:43:16;;;;;;;18.20;11.77;;;9.00;84.40;;;;;;5086059;28;20376;-75
2023/05/26 02:45:41;;;;;;;19.38;10.75;;;9.00;82.30;;;;;;5093354;28;20050;-74
2023/05/26 02:48:07;;;;;;;17.13;12.02;;;8.90;82.40;;;;;;5082577;28;20028;-73
2023/05/26 02:50:35;;;;;;;17.20;11.25;;;8.90;82.50;;;;;;5089603;28;20031;-74
2023/05/26 02:53:02;;;;;;;19.65;12.15;;;8.80;82.00;;;;;;5085681;28;20048;-74
2023/05/26 02:55:27;;;;;;;20.42;13.13;;;8.70;82.00;;;;;;5085844;28;20024;-75
2023/05/26 02:57:53;;;;;;;21.77;13.00;;;8.60;81.80;;;;;;5090044;28;20043;-73
2023/05/26 03:00:19;;;;;;;15.40;11.10;;;8.60;80.70;;;;;;5085452;28;20322;-73
2023/05/26 03:02:45;;;;;;;20.75;13.65;;;8.50;79.80;;;;;;5084509;28;20028;-73
2023/05/26 03:05:12;;;;;;;22.70;12.90;;;8.50;79.80;;;;;;5090849;28;20024;-74
2023/05/26 03:07:38;;;;;;;18.52;12.30;;;8.60;79.60;;;;;;5093020;28;20062;-73
2023/05/26 03:10:10;;;;;;;22.50;11.85;;;8.50;79.80;;;;;;5093108;28;20036;-73
2023/05/26 03:12:35;;;;;;;22.60;12.25;;;8.50;78.60;;;;;;5091591;28;20789;-73
2023/05/26 03:15:01;;;;;;;17.83;11.18;;;8.50;78.70;;;;;;5091188;28;20028;-73
2023/05/26 03:17:29;;;;;;;20.92;13.07;;;8.50;78.10;;;;;;5092898;28;20032;-73
2023/05/26 03:19:55;;;;;;;22.70;12.30;;;8.50;78.20;;;;;;5090661;28;20052;-73
2023/05/26 03:22:21;;;;;;;22.55;12.18;;;8.50;78.40;;;;;;5093695;28;20016;-74
2023/05/26 03:24:46;;;;;;;22.05;13.65;;;8.50;78.70;;;;;;5093546;28;20016;-74
2023/05/26 03:27:12;;;;;;;21.40;12.50;;;8.50;79.20;;;;;;5087502;28;20048;-74
2023/05/26 03:29:37;;;;;;;21.13;12.18;;;8.50;79.00;;;;;;5085798;28;20025;-74
2023/05/26 03:32:06;;;;;;;18.10;12.63;;;8.50;78.90;;;;;;5086506;28;20024;-73
2023/05/26 03:34:33;;;;;;;21.38;13.43;;;8.50;78.80;;;;;;5091745;28;20324;-73
2023/05/26 03:36:58;;;;;;;21.48;12.45;;;8.50;79.40;;;;;;5087595;28;20417;-73
2023/05/26 03:39:24;;;;;;;18.88;12.93;;;8.50;79.20;;;;;;5094164;28;20028;-72
2023/05/26 03:41:49;;;;;;;17.33;11.40;;;8.40;79.80;;;;;;5098745;28;20283;-73
2023/05/26 03:44:18;;;;;;;18.30;11.50;;;8.40;79.60;;;;;;5098633;28;20034;-75
2023/05/26 03:46:47;;;;;;;23.08;12.70;;;8.30;79.70;;;;;;5070009;28;20684;-74
2023/05/26 03:49:13;;;;;;;19.92;12.23;;;8.30;79.70;;;;;;5097630;28;20031;-74
2023/05/26 03:51:39;;;;;;;22.02;12.73;;;8.40;79.30;;;;;;5096767;28;20024;-74
2023/05/26 03:54:04;;;;;;;25.27;13.82;;;8.40;79.80;;;;;;5092155;28;20163;-74
2023/05/26 03:56:30;;;;;;;19.27;11.70;;;8.40;79.90;;;;;;5086334;28;20032;-74
2023/05/26 03:58:56;;;;;;;23.10;14.40;;;8.40;78.80;;;;;;5086060;28;20028;-74
2023/05/26 04:01:22;;;;;;;19.85;12.77;;;8.40;79.20;;;;;;5078818;28;20016;-74
2023/05/26 04:03:47;;;;;;;19.50;12.45;;;8.40;79.20;;;;;;5083223;28;20021;-74
2023/05/26 04:06:13;;;;;;;21.55;12.77;;;8.40;79.20;;;;;;5096657;28;20361;-74
2023/05/26 04:08:39;;;;;;;21.08;14.02;;;8.40;79.20;;;;;;5085507;28;20046;-74
2023/05/26 04:11:05;;;;;;;20.77;13.63;;;8.40;79.40;;;;;;5095912;28;20024;-74
2023/05/26 04:13:31;;;;;;;20.88;12.90;;;8.40;79.80;;;;;;5085719;28;20318;-74
2023/05/26 04:15:57;;;;;;;21.90;11.93;;;8.40;80.10;;;;;;5078809;28;20111;-74
2023/05/26 04:18:23;;;;;;;20.20;12.40;;;8.40;80.20;;;;;;5097547;28;20102;-74
2023/05/26 04:20:49;;;;;;;17.83;12.13;;;8.50;80.30;;;;;;5098139;28;20020;-74
2023/05/26 04:23:17;;;;;;;20.33;12.65;;;8.50;80.70;;;;;;5093716;28;20024;-73
2023/05/26 04:25:50;;;;;;;19.65;13.13;;;8.50;80.70;;;;;;5088793;28;20374;-74
2023/05/26 04:28:18;;;;;;;18.58;11.95;;;8.50;80.80;;;;;;5088688;28;20063;-74
2023/05/26 04:30:44;;;;;;;20.30;12.23;;;8.50;80.70;;;;;;5090154;28;20104;-73
2023/05/26 04:33:12;;;;;;;18.48;12.52;;;8.60;80.20;;;;;;5069277;28;20329;-74
2023/05/26 04:35:38;;;;;;;20.33;11.07;;;8.60;80.00;;;;;;5091236;28;20066;-73
2023/05/26 04:38:04;;;;;;;19.05;12.32;;;8.70;80.10;;;;;;5084825;28;20119;-74
2023/05/26 04:40:33;;;;;;;16.05;11.13;;;8.70;81.20;;;;;;5077138;28;20032;-74
2023/05/26 04:43:00;;;;;;;21.38;13.18;;;8.80;82.30;;;;;;5081301;28;20027;-74
2023/05/26 04:45:26;;;;;;;20.77;12.35;;;8.80;82.60;;;;;;5088291;28;20028;-74
2023/05/26 04:47:54;;;;;;;18.73;12.35;;;8.90;82.70;;;;;;5089014;28;20142;-74
2023/05/26 04:50:22;;;;;;;24.13;13.35;;;8.90;83.30;;;;;;5096308;28;20077;-74
2023/05/26 04:52:49;;;;;;;22.83;13.27;;;9.00;83.70;;;;;;5091709;28;20028;-74
2023/05/26 04:55:14;;;;;;;19.00;11.98;;;9.10;84.00;;;;;;5071039;28;20035;-74
2023/05/26 04:57:40;;;;;;;20.15;12.60;;;9.20;84.00;;;;;;5090072;28;20326;-74
2023/05/26 05:00:06;;;;;;;20.40;12.75;;;9.20;84.30;;;;;;5087812;28;20121;-73
2023/05/26 05:02:32;;;;;;;16.30;11.02;;;9.30;83.90;;;;;;5093600;28;20028;-74
2023/05/26 05:04:57;;;;;;;21.38;12.57;;;9.30;84.30;;;;;;5080488;28;20032;-74
2023/05/26 05:07:23;;;;;;;17.33;10.98;;;9.40;85.70;;;;;;5081970;28;20060;-74
2023/05/26 05:09:48;;;;;;;20.95;11.95;;;9.50;85.60;;;;;;5083985;28;20031;-74
2023/05/26 05:12:14;;;;;;;21.30;12.18;;;9.60;85.70;;;;;;5078372;28;20447;-74
2023/05/26 05:14:40;;;;;;;18.52;11.10;;;9.70;85.30;;;;;;5097075;28;20295;-74
2023/05/26 05:17:05;;;;;;;17.75;11.45;;;9.80;86.90;;;;;;5093026;28;20104;-73
2023/05/26 05:19:31;;;;;;;18.88;11.80;;;9.90;87.40;;;;;;5097781;28;20100;-74
2023/05/26 05:21:56;;;;;;;18.27;11.27;;;10.00;88.50;;;;;;5097006;28;20041;-74
2023/05/26 05:24:22;;;;;;;19.50;11.63;;;10.10;89.50;;;;;;5096436;28;20024;-74
2023/05/26 05:26:48;;;;;;;18.52;11.38;;;10.30;89.90;;;;;;5096966;28;20024;-74
2023/05/26 05:29:13;;;;;;;20.85;12.27;;;10.40;90.70;;;;;;5097699;28;20016;-73
2023/05/26 05:31:39;;;;;;;17.60;10.57;;;10.60;92.30;;;;;;5097445;28;20020;-74
2023/05/26 05:34:04;;;;;;;15.15;9.90;;;10.70;93.10;;;;;;5085845;28;20568;-74
2023/05/26 05:36:31;;;;;;;16.67;11.32;;;10.90;94.60;;;;;;5069407;28;20100;-73
2023/05/26 05:39:00;;;;;;;19.55;12.00;;;11.00;95.50;;;;;;5087005;28;20031;-74
2023/05/26 05:41:25;;;;;;;19.13;11.40;;;11.20;96.10;;;;;;5085942;28;20059;-74
2023/05/26 05:43:56;;;;;;;18.30;11.95;;;11.30;96.80;;;;;;5079637;28;20068;-74
2023/05/26 05:46:23;;;;;;;17.77;11.30;;;11.40;97.40;;;;;;5092198;28;20409;-74
2023/05/26 05:48:48;;;;;;;18.55;11.23;;;11.50;97.30;;;;;;5061735;28;20025;-73
2023/05/26 05:51:14;;;;;;;18.00;10.43;;;11.70;97.50;;;;;;5096416;28;20024;-75
2023/05/26 05:53:40;;;;;;;17.23;11.25;;;11.90;98.00;;;;;;5095953;28;20035;-73
2023/05/26 05:56:05;;;;;;;23.27;11.48;;;12.10;98.00;;;;;;5090396;28;20089;-74
2023/05/26 05:58:34;;;;;;;19.73;11.48;;;12.10;98.00;;;;;;5082033;28;20025;-74
2023/05/26 06:00:59;;;;;;;17.23;11.15;;;12.20;98.00;;;;;;5076682;28;20033;-74
2023/05/26 06:03:25;;;;;;;16.60;10.75;;;12.20;98.00;;;;;;5090085;28;20017;-74
2023/05/26 06:05:51;;;;;;;19.58;12.10;;;12.30;98.00;;;;;;5096600;28;20332;-74
2023/05/26 06:08:17;;;;;;;18.58;11.88;;;12.40;98.00;;;;;;5090475;28;20077;-74
2023/05/26 06:10:43;;;;;;;19.38;12.00;;;12.50;98.00;;;;;;5095316;28;20103;-73
2023/05/26 06:13:08;;;;;;;18.30;10.35;;;12.60;98.00;;;;;;5087203;28;20028;-74
2023/05/26 06:15:34;;;;;;;17.23;11.68;;;12.80;98.00;;;;;;5088430;28;20028;-74
2023/05/26 06:18:00;;;;;;;17.15;11.70;;;13.00;98.00;;;;;;5096103;28;20024;-73
2023/05/26 06:20:25;;;;;;;21.08;12.45;;;13.00;98.00;;;;;;5090867;28;20420;-74
2023/05/26 06:22:51;;;;;;;17.52;11.20;;;13.10;98.00;;;;;;5088088;28;20027;-74
2023/05/26 06:25:16;;;;;;;16.90;11.07;;;13.10;98.00;;;;;;5089550;28;20044;-74
2023/05/26 06:27:42;;;;;;;21.45;11.85;;;13.30;97.60;;;;;;5086505;28;20020;-73
2023/05/26 06:30:08;;;;;;;19.90;11.43;;;13.40;97.40;;;;;;5087791;28;20030;-73
2023/05/26 06:32:34;;;;;;;16.92;11.52;;;13.50;97.70;;;;;;5091626;28;20103;-73
2023/05/26 06:34:59;;;;;;;16.30;11.35;;;13.60;97.40;;;;;;5061637;28;20032;-73
2023/05/26 06:37:25;;;;;;;20.73;11.63;;;13.60;97.30;;;;;;5092685;28;20429;-73
2023/05/26 06:39:50;;;;;;;19.38;11.35;;;13.70;97.40;;;;;;5090185;28;20378;-74
2023/05/26 06:42:16;;;;;;;19.83;11.73;;;13.80;97.10;;;;;;5095629;28;20333;-74
2023/05/26 06:44:41;;;;;;;19.42;11.75;;;13.80;96.90;;;;;;5095424;28;20160;-75
2023/05/26 06:47:08;;;;;;;17.75;11.65;;;13.90;97.20;;;;;;5096219;28;20073;-74
2023/05/26 06:49:34;;;;;;;16.67;11.50;;;14.10;97.00;;;;;;5096157;28;20520;-75
2023/05/26 06:51:59;;;;;;;16.65;10.98;;;14.20;96.80;;;;;;5090379;28;20095;-74
2023/05/26 06:54:25;;;;;;;17.83;11.77;;;14.30;96.70;;;;;;5083438;28;20020;-73
2023/05/26 06:56:50;;;;;;;20.73;11.15;;;14.30;96.50;;;;;;5096171;28;20435;-73
2023/05/26 06:59:19;;;;;;;17.52;10.88;;;14.30;96.10;;;;;;5096123;28;20043;-73
2023/05/26 07:01:47;;;;;;;19.98;12.02;;;14.40;97.00;;;;;;5096042;28;20025;-74
2023/05/26 07:04:13;;;;;;;19.77;11.50;;;14.40;96.50;;;;;;5095925;28;20060;-74
2023/05/26 07:06:42;;;;;;;17.00;10.35;;;14.50;95.90;;;;;;5095481;28;20048;-74
2023/05/26 07:09:07;;;;;;;17.85;11.30;;;14.50;95.80;;;;;;5085257;28;20032;-74
2023/05/26 07:11:33;;;;;;;20.33;11.77;;;14.60;95.70;;;;;;5087548;28;20028;-74
2023/05/26 07:13:58;;;;;;;20.02;11.27;;;14.60;95.30;;;;;;5096664;28;20024;-74
2023/05/26 07:16:24;;;;;;;17.30;11.07;;;14.70;95.70;;;;;;5100046;28;20028;-74
2023/05/26 07:18:49;;;;;;;19.83;11.50;;;14.70;95.90;;;;;;5100295;28;20439;-75
2023/05/26 07:21:17;;;;;;;16.27;10.93;;;14.90;96.00;;;;;;5099975;28;20386;-74
2023/05/26 07:23:43;;;;;;;18.85;11.18;;;15.10;94.80;;;;;;5096076;28;20676;-74
2023/05/26 07:26:09;;;;;;;19.33;11.63;;;15.40;94.40;;;;;;5096274;28;20438;-74
2023/05/26 07:28:35;;;;;;;22.77;11.55;;;15.90;92.90;;;;;;5099907;28;20039;-74
2023/05/26 07:31:01;;;;;;;17.48;10.63;;;16.50;90.40;;;;;;5100048;28;20047;-74
2023/05/26 07:33:26;;;;;;;18.50;10.40;;;17.00;89.90;;;;;;5099965;28;20077;-73
2023/05/26 07:35:52;;;;;;;15.35;10.20;;;17.50;88.10;;;;;;5099689;28;20052;-74
2023/05/26 07:38:17;;;;;;;20.63;9.73;;;17.90;87.00;;;;;;5087659;28;20029;-77
2023/05/26 07:40:46;;;;;;;16.38;10.50;;;18.40;86.20;;;;;;5078240;28;20029;-74
2023/05/26 07:43:12;;;;;;;15.95;10.43;;;18.50;85.30;;;;;;5070048;28;20184;-75
2023/05/26 07:45:38;;;;;;;15.50;9.98;;;18.50;84.50;;;;;;5099667;28;20405;-75
2023/05/26 07:48:03;;;;;;;16.70;10.65;;;18.70;84.10;;;;;;5099625;28;20031;-74
2023/05/26 07:50:30;;;;;;;15.30;8.73;;;19.10;83.30;;;;;;5099598;28;20028;-75
2023/05/26 07:52:56;;;;;;;14.85;9.23;;;19.00;82.90;;;;;;5095670;28;20031;-75
2023/05/26 07:55:22;;;;;;;17.52;10.57;;;19.60;81.40;;;;;;5098455;28;20024;-75
2023/05/26 07:57:47;;;;;;;15.27;9.85;;;19.90;80.10;;;;;;5098313;28;20135;-75
2023/05/26 08:00:13;;;;;;;15.95;10.45;;;20.10;80.50;;;;;;5097913;28;20098;-75
2023/05/26 08:02:40;;;;;;;20.23;10.25;;;20.00;79.30;;;;;;5099254;28;20028;-75
2023/05/26 08:05:05;;;;;;;15.43;10.38;;;20.00;79.70;;;;;;5099162;28;20099;-75
2023/05/26 08:07:31;;;;;;;16.02;9.57;;;20.40;78.60;;;;;;5097733;28;20107;-75
2023/05/26 08:09:57;;;;;;;17.13;10.23;;;20.70;78.70;;;;;;5095122;28;20028;-74
2023/05/26 08:12:22;;;;;;;15.32;9.30;;;20.70;77.90;;;;;;5099145;28;20027;-74
2023/05/26 08:14:49;;;;;;;14.88;9.38;;;20.60;78.40;;;;;;5099147;28;20026;-74
2023/05/26 08:17:14;;;;;;;13.90;9.48;;;21.20;77.20;;;;;;5097861;28;20116;-74
2023/05/26 08:19:40;;;;;;;14.55;9.55;;;21.40;77.40;;;;;;5099090;28;20059;-74
2023/05/26 08:22:05;;;;;;;18.55;11.18;;;21.30;76.30;;;;;;5080910;28;20024;-74
2023/05/26 08:24:31;;;;;;;15.88;10.38;;;21.10;76.30;;;;;;5096912;28;20028;-74
2023/05/26 08:26:57;;;;;;;17.90;11.40;;;21.10;77.20;;;;;;5097990;28;20466;-75
2023/05/26 08:29:22;;;;;;;15.80;10.10;;;20.40;77.70;;;;;;5098852;28;20031;-74
2023/05/26 08:31:49;;;;;;;17.40;10.25;;;20.70;79.10;;;;;;5080958;28;20027;-74
2023/05/26 08:34:15;;;;;;;17.55;10.38;;;21.70;75.80;;;;;;5098560;28;20027;-73
2023/05/26 08:36:41;;;;;;;18.23;10.48;;;22.20;75.40;;;;;;5096401;28;20127;-74
2023/05/26 08:39:06;;;;;;;14.20;9.20;;;22.60;74.20;;;;;;5089315;28;20369;-74
2023/05/26 08:41:39;;;;;;;16.25;9.32;;;23.10;73.30;;;;;;5098530;28;20024;-74
2023/05/26 08:44:05;;;;;;;19.50;9.90;;;23.20;72.70;;;;;;5098647;28;20130;-74
2023/05/26 08:46:32;;;;;;;18.10;10.70;;;22.90;72.10;;;;;;5096674;28;20425;-74
2023/05/26 08:48:58;;;;;;;12.52;8.60;;;23.00;71.60;;;;;;5098334;28;20035;-74
2023/05/26 08:51:23;;;;;;;15.23;9.75;;;23.10;73.20;;;;;;5097785;28;20027;-74
2023/05/26 08:53:52;;;;;;;16.08;9.40;;;22.90;71.60;;;;;;5097049;28;20334;-74
2023/05/26 08:56:19;;;;;;;18.13;10.10;;;23.10;72.80;;;;;;5097661;28;20024;-74
2023/05/26 08:58:46;;;;;;;14.50;9.13;;;23.00;71.20;;;;;;5080346;28;20028;-75
2023/05/26 09:01:11;;;;;;;15.98;8.85;;;22.30;73.10;;;;;;5098336;28;20051;-74
2023/05/26 09:03:37;;;;;;;14.68;9.60;;;22.60;72.80;;;;;;5098056;28;20028;-74
2023/05/26 09:06:06;;;;;;;16.17;9.45;;;23.40;71.30;;;;;;5098095;28;20424;-74
2023/05/26 09:08:31;;;;;;;12.25;8.27;;;23.70;70.80;;;;;;5097005;28;20417;-74
2023/05/26 09:10:57;;;;;;;13.77;8.07;;;23.60;70.90;;;;;;5093380;28;20024;-74
2023/05/26 09:13:23;;;;;;;14.82;7.80;;;23.60;71.00;;;;;;5077838;28;20028;-74
2023/05/26 09:15:51;;;;;;;14.27;8.50;;;24.50;69.80;;;;;;5077791;28;20029;-74
2023/05/26 09:18:17;;;;;;;12.63;7.85;;;24.60;66.70;;;;;;5077425;28;20044;-74
2023/05/26 09:20:48;;;;;;;14.73;9.10;;;24.00;67.40;;;;;;5077692;28;20067;-74
2023/05/26 09:23:20;;;;;;;13.63;8.07;;;23.90;68.80;;;;;;5077586;28;20056;-73
2023/05/26 09:25:49;;;;;;;14.13;8.35;;;24.10;70.40;;;;;;5076703;28;20012;-73
2023/05/26 09:28:15;;;;;;;15.07;9.15;;;24.90;67.50;;;;;;5077630;28;20021;-73
2023/05/26 09:30:45;;;;;;;13.38;8.45;;;25.40;66.40;;;;;;5077923;28;20082;-73
2023/05/26 09:33:16;;;;;;;15.73;9.20;;;25.10;66.30;;;;;;5078899;28;20044;-74
2023/05/26 09:35:44;;;;;;;15.43;10.30;;;24.40;67.50;;;;;;5077306;28;20098;-75
2023/05/26 09:38:11;;;;;;;13.57;9.18;;;24.40;66.80;;;;;;5076561;28;20090;-74
2023/05/26 09:40:47;;;;;;;15.77;9.18;;;24.50;66.90;;;;;;5078904;28;20051;-74
2023/05/26 09:43:15;;;;;;;13.43;8.50;;;24.90;66.30;;;;;;5097389;28;20024;-75
2023/05/26 09:45:41;;;;;;;12.80;8.00;;;25.40;65.40;;;;;;5097287;28;20271;-74
2023/05/26 09:48:07;;;;;;;15.13;10.15;;;25.00;66.20;;;;;;5096639;28;20024;-74
2023/05/26 09:50:34;;;;;;;14.70;9.13;;;24.30;66.00;;;;;;5089173;28;20112;-73
2023/05/26 09:53:02;;;;;;;15.73;9.48;;;24.10;66.90;;;;;;5096815;28;20359;-74
2023/05/26 09:55:28;;;;;;;14.05;8.18;;;24.20;67.40;;;;;;5096154;28;20020;-74
2023/05/26 09:57:57;;;;;;;12.63;8.27;;;24.00;68.50;;;;;;5097036;28;20096;-74
2023/05/26 10:00:26;;;;;;;13.52;8.52;;;24.10;68.00;;;;;;5097109;28;20440;-74
2023/05/26 10:02:53;;;;;;;16.58;9.55;;;24.70;66.10;;;;;;5097026;28;20031;-74
2023/05/26 10:05:20;;;;;;;16.38;8.73;;;24.20;66.80;;;;;;5096158;28;20085;-74
2023/05/26 10:07:47;;;;;;;15.82;8.55;;;24.00;68.00;;;;;;5097106;28;20020;-74
2023/05/26 10:10:14;;;;;;;17.33;9.00;;;24.10;68.40;;;;;;5095600;28;20031;-74
2023/05/26 10:12:41;;;;;;;12.02;7.70;;;24.00;66.40;;;;;;5096826;28;20031;-74
2023/05/26 10:15:07;;;;;;;12.15;8.85;;;24.50;67.10;;;;;;5096857;28;20329;-74
2023/05/26 10:17:33;;;;;;;13.50;7.60;;;24.90;64.90;;;;;;5096832;28;20036;-74
2023/05/26 10:20:00;;;;;;;11.75;7.45;;;25.40;64.70;;;;;;5088123;28;20044;-74
2023/05/26 10:22:34;;;;;;;16.58;8.88;;;26.00;63.10;;;;;;5076282;28;20021;-75
2023/05/26 10:25:07;;;;;;;15.65;8.27;;;25.20;63.50;;;;;;5075075;28;20016;-74
2023/05/26 10:27:51;;;;;;;15.13;7.72;;;24.40;66.00;;;;;;5076451;28;20064;-74
2023/05/26 10:30:20;;;;;;;16.38;8.95;;;23.90;66.70;;;;;;5058648;28;20027;-74
2023/05/26 10:32:52;;;;;;;15.93;8.38;;;23.80;66.80;;;;;;5076243;28;20364;-74
2023/05/26 10:35:31;;;;;;;14.95;8.20;;;24.20;66.80;;;;;;5088473;28;20024;-75
2023/05/26 10:38:17;;;;;;;14.77;7.68;;;24.50;66.20;;;;;;5077329;28;20032;-74
2023/05/26 10:40:44;;;;;;;14.00;8.00;;;24.40;66.50;;;;;;5095031;28;20039;-74
2023/05/26 10:43:25;;;;;;;14.40;8.68;;;24.30;66.40;;;;;;5096354;28;20024;-74
2023/05/26 10:45:55;;;;;;;14.27;8.57;;;24.40;66.80;;;;;;5096365;28;20085;-74
2023/05/26 10:48:24;;;;;;;20.70;8.82;;;24.90;65.70;;;;;;5096284;28;20101;-74
2023/05/26 10:50:59;;;;;;;13.10;7.82;;;24.30;68.50;;;;;;5096236;28;20324;-74
2023/05/26 10:53:32;;;;;;;13.18;7.45;;;24.80;67.00;;;;;;5074886;28;20028;-74
2023/05/26 10:56:02;;;;;;;13.98;7.78;;;24.50;65.80;;;;;;5079510;28;20028;-74
2023/05/26 10:58:35;;;;;;;13.32;7.15;;;24.10;67.90;;;;;;5096054;28;20117;-75
2023/05/26 11:01:01;;;;;;;12.88;6.95;;;24.30;64.90;;;;;;5096418;28;20282;-74
2023/05/26 11:03:35;;;;;;;13.38;6.80;;;24.10;65.60;;;;;;5095930;28;20028;-74
2023/05/26 11:06:01;;;;;;;14.98;7.43;;;24.10;66.50;;;;;;5096055;28;20016;-74
2023/05/26 11:08:35;;;;;;;14.57;7.00;;;24.60;66.60;;;;;;5091138;28;20388;-74
2023/05/26 11:11:03;;;;;;;13.02;6.30;;;24.50;65.80;;;;;;5083359;28;20107;-74
2023/05/26 11:13:52;;;;;;;10.57;6.10;;;24.20;65.30;;;;;;5079216;28;20383;-74
2023/05/26 11:16:23;;;;;;;14.45;7.18;;;24.00;64.50;;;;;;5058160;28;20114;-74
2023/05/26 11:18:54;;;;;;;17.90;7.00;;;24.00;65.60;;;;;;5058058;28;20028;-74
2023/05/26 11:21:29;;;;;;;11.90;6.50;;;23.80;65.80;;;;;;5075680;28;20028;-74
2023/05/26 11:23:58;;;;;;;14.20;7.95;;;23.80;66.10;;;;;;5074553;28;20090;-74
2023/05/26 11:26:30;;;;;;;13.13;7.65;;;23.90;67.00;;;;;;5087990;28;20020;-74
2023/05/26 11:28:56;;;;;;;11.60;6.97;;;23.60;66.80;;;;;;5075706;28;20479;-74
2023/05/26 11:31:27;;;;;;;13.52;7.93;;;24.10;66.90;;;;;;5075783;28;20028;-74
2023/05/26 11:33:54;;;;;;;16.20;7.75;;;24.20;66.80;;;;;;5075507;28;20056;-74
2023/05/26 11:36:21;;;;;;;11.40;7.30;;;24.10;67.50;;;;;;5075459;28;20114;-74
2023/05/26 11:38:51;;;;;;;17.27;8.35;;;24.40;66.60;;;;;;5074394;28;20020;-75
2023/05/26 11:41:16;;;;;;;12.57;6.55;;;24.20;66.70;;;;;;5077074;28;20032;-75
2023/05/26 11:43:45;;;;;;;13.23;6.97;;;24.10;68.30;;;;;;5094334;28;20042;-75
2023/05/26 11:46:13;;;;;;;16.67;7.93;;;24.60;65.70;;;;;;5095668;28;20099;-74
2023/05/26 11:48:40;;;;;;;12.88;7.28;;;24.50;67.30;;;;;;5095734;28;20012;-74
2023/05/26 11:51:14;;;;;;;11.90;6.65;;;24.20;66.80;;;;;;5095538;28;20035;-74
2023/05/26 11:53:42;;;;;;;15.10;7.40;;;24.00;67.90;;;;;;5094326;28;20513;-74
2023/05/26 11:56:08;;;;;;;13.65;7.60;;;24.00;67.90;;;;;;5095568;28;20028;-75
2023/05/26 11:58:40;;;;;;;15.75;7.97;;;24.00;68.40;;;;;;5092467;28;20115;-75
2023/05/26 12:01:07;;;;;;;15.00;7.63;;;24.90;70.00;;;;;;5085300;28;20039;-75
2023/05/26 12:03:36;;;;;;;14.38;7.53;;;25.60;64.60;;;;;;5081449;28;20038;-75
2023/05/26 12:06:15;;;;;;;17.05;8.95;;;25.20;65.80;;;;;;5099351;28;20401;-74
2023/05/26 12:08:44;;;;;;;13.73;8.48;;;24.90;66.90;;;;;;5089195;28;20024;-74
2023/05/26 12:11:24;;;;;;;12.85;8.73;;;24.70;66.20;;;;;;5096896;28;20417;-74
2023/05/26 12:14:02;;;;;;;14.43;7.75;;;25.00;67.00;;;;;;5094727;28;20036;-75
2023/05/26 12:16:33;;;;;;;12.20;7.53;;;25.50;65.80;;;;;;5093781;28;20020;-73
2023/05/26 12:19:12;;;;;;;17.80;8.40;;;25.60;66.50;;;;;;5093849;28;20020;-72
2023/05/26 12:21:48;;;;;;;12.50;7.80;;;25.40;65.90;;;;;;5070045;28;20173;-72
2023/05/26 12:24:37;;;;;;;13.63;7.65;;;25.60;65.90;;;;;;5073833;28;20425;-73
2023/05/26 12:27:13;;;;;;;15.20;8.50;;;25.90;64.90;;;;;;5083648;28;20117;-73
2023/05/26 12:29:44;;;;;;;15.10;8.52;;;25.90;65.00;;;;;;5085661;28;20356;-73
2023/05/26 12:32:10;;;;;;;12.32;7.15;;;25.50;65.00;;;;;;5085114;28;20099;-75
2023/05/26 12:34:38;;;;;;;13.85;6.88;;;25.20;67.70;;;;;;5092559;28;20420;-74